sensor_id;sensor_type;location;lat;lon;timestamp;temperature;humidity
29003;DHT22;16102;57.138;-2.118;2023-06-10T00:00:30;11.80;1.00
29003;DHT22;16102;57.138;-2.118;2023-06-10T00:02:58;11.60;1.00
29003;DHT22;16102;57.138;-2.118;2023-06-10T00:05:26;11.50;1.00
29003;DHT22;16102;57.138;-2.118;2023-06-10T00:07:56;11.40;1.00
29003;DHT22;16102;57.138;-2.118;2023-06-10T00:10:24;11.20;1.00
29003;DHT22;16102;57.138;-2.118;2023-06-10T00:12:51;11.20;1.00
29003;DHT22;16102;57.138;-2.118;2023-06-10T00:15:18;11.10;1.00
29003;DHT22;16102;57.138;-2.118;2023-06-10T00:17:45;11.20;1.00
29003;DHT22;16102;57.138;-2.118;2023-06-10T00:20:13;11.30;1.00
29003;DHT22;16102;57.138;-2.118;2023-06-10T00:22:40;11.20;1.00
29003;DHT22;16102;57.138;-2.118;2023-06-10T00:25:09;11.30;1.00
29003;DHT22;16102;57.138;-2.118;2023-06-10T00:27:37;11.30;1.00
29003;DHT22;16102;57.138;-2.118;2023-06-10T00:30:05;11.30;1.00
29003;DHT22;16102;57.138;-2.118;2023-06-10T00:32:34;11.10;1.00
29003;DHT22;16102;57.138;-2.118;2023-06-10T00:35:03;11.30;1.00
29003;DHT22;16102;57.138;-2.118;2023-06-10T00:37:30;11.30;1.00
29003;DHT22;16102;57.138;-2.118;2023-06-10T00:39:57;11.20;1.00
29003;DHT22;16102;57.138;-2.118;2023-06-10T00:42:24;11.10;1.00
29003;DHT22;16102;57.138;-2.118;2023-06-10T00:44:52;11.10;1.00
29003;DHT22;16102;57.138;-2.118;2023-06-10T00:47:19;11.20;1.00
29003;DHT22;16102;57.138;-2.118;2023-06-10T00:49:46;11.00;1.00
29003;DHT22;16102;57.138;-2.118;2023-06-10T00:52:14;11.20;1.00
29003;DHT22;16102;57.138;-2.118;2023-06-10T00:54:42;11.30;1.00
29003;DHT22;16102;57.138;-2.118;2023-06-10T00:57:12;11.40;1.00
29003;DHT22;16102;57.138;-2.118;2023-06-10T00:59:54;11.40;1.00
29003;DHT22;16102;57.138;-2.118;2023-06-10T01:02:21;11.40;1.00
29003;DHT22;16102;57.138;-2.118;2023-06-10T01:04:48;11.40;1.00
29003;DHT22;16102;57.138;-2.118;2023-06-10T01:10:13;11.10;1.00
29003;DHT22;16102;57.138;-2.118;2023-06-10T01:12:49;11.10;1.00
29003;DHT22;16102;57.138;-2.118;2023-06-10T01:15:19;11.00;1.00
29003;DHT22;16102;57.138;-2.118;2023-06-10T01:18:04;11.00;1.00
29003;DHT22;16102;57.138;-2.118;2023-06-10T01:20:32;11.10;1.00
29003;DHT22;16102;57.138;-2.118;2023-06-10T01:23:00;11.30;1.00
29003;DHT22;16102;57.138;-2.118;2023-06-10T01:25:28;11.40;1.00
29003;DHT22;16102;57.138;-2.118;2023-06-10T01:30:53;11.30;1.00
29003;DHT22;16102;57.138;-2.118;2023-06-10T01:33:28;11.40;1.00
29003;DHT22;16102;57.138;-2.118;2023-06-10T01:35:57;11.50;1.00
29003;DHT22;16102;57.138;-2.118;2023-06-10T01:38:27;11.60;1.00
29003;DHT22;16102;57.138;-2.118;2023-06-10T01:40:55;11.60;1.00
29003;DHT22;16102;57.138;-2.118;2023-06-10T01:43:23;11.70;1.00
29003;DHT22;16102;57.138;-2.118;2023-06-10T01:45:50;11.80;1.00
29003;DHT22;16102;57.138;-2.118;2023-06-10T01:48:17;11.90;1.00
29003;DHT22;16102;57.138;-2.118;2023-06-10T01:50:44;11.90;1.00
29003;DHT22;16102;57.138;-2.118;2023-06-10T01:53:11;11.90;1.00
29003;DHT22;16102;57.138;-2.118;2023-06-10T01:55:38;11.90;1.00
29003;DHT22;16102;57.138;-2.118;2023-06-10T01:58:05;12.00;1.00
29003;DHT22;16102;57.138;-2.118;2023-06-10T02:00:33;11.90;1.00
29003;DHT22;16102;57.138;-2.118;2023-06-10T02:03:00;11.90;1.00
29003;DHT22;16102;57.138;-2.118;2023-06-10T02:05:27;11.80;1.00
29003;DHT22;16102;57.138;-2.118;2023-06-10T02:07:54;11.80;1.00
29003;DHT22;16102;57.138;-2.118;2023-06-10T02:10:21;11.80;1.00
29003;DHT22;16102;57.138;-2.118;2023-06-10T02:12:48;11.80;1.00
29003;DHT22;16102;57.138;-2.118;2023-06-10T02:15:16;11.70;1.00
29003;DHT22;16102;57.138;-2.118;2023-06-10T02:17:43;11.60;1.00
29003;DHT22;16102;57.138;-2.118;2023-06-10T02:20:11;11.60;1.00
29003;DHT22;16102;57.138;-2.118;2023-06-10T02:22:40;11.70;1.00
29003;DHT22;16102;57.138;-2.118;2023-06-10T02:25:07;11.60;1.00
29003;DHT22;16102;57.138;-2.118;2023-06-10T02:27:35;11.70;1.00
29003;DHT22;16102;57.138;-2.118;2023-06-10T02:30:02;11.70;1.00
29003;DHT22;16102;57.138;-2.118;2023-06-10T02:32:29;11.90;1.00
29003;DHT22;16102;57.138;-2.118;2023-06-10T02:34:56;11.80;1.00
29003;DHT22;16102;57.138;-2.118;2023-06-10T02:37:24;11.80;1.00
29003;DHT22;16102;57.138;-2.118;2023-06-10T02:39:51;11.80;1.00
29003;DHT22;16102;57.138;-2.118;2023-06-10T02:42:18;11.80;1.00
29003;DHT22;16102;57.138;-2.118;2023-06-10T02:44:45;11.60;1.00
29003;DHT22;16102;57.138;-2.118;2023-06-10T02:47:12;11.70;1.00
29003;DHT22;16102;57.138;-2.118;2023-06-10T02:49:39;11.80;1.00
29003;DHT22;16102;57.138;-2.118;2023-06-10T02:52:07;11.80;1.00
29003;DHT22;16102;57.138;-2.118;2023-06-10T02:54:35;11.80;1.00
29003;DHT22;16102;57.138;-2.118;2023-06-10T02:57:02;11.90;1.00
29003;DHT22;16102;57.138;-2.118;2023-06-10T02:59:30;11.90;1.00
29003;DHT22;16102;57.138;-2.118;2023-06-10T03:01:57;12.00;1.00
29003;DHT22;16102;57.138;-2.118;2023-06-10T03:04:26;11.80;1.00
29003;DHT22;16102;57.138;-2.118;2023-06-10T03:06:55;11.70;1.00
29003;DHT22;16102;57.138;-2.118;2023-06-10T03:09:23;11.70;1.00
29003;DHT22;16102;57.138;-2.118;2023-06-10T03:11:50;11.70;1.00
29003;DHT22;16102;57.138;-2.118;2023-06-10T03:14:17;11.70;1.00
29003;DHT22;16102;57.138;-2.118;2023-06-10T03:16:44;11.70;1.00
29003;DHT22;16102;57.138;-2.118;2023-06-10T03:19:12;11.70;1.00
29003;DHT22;16102;57.138;-2.118;2023-06-10T03:21:43;11.70;1.00
29003;DHT22;16102;57.138;-2.118;2023-06-10T03:24:10;11.60;1.00
29003;DHT22;16102;57.138;-2.118;2023-06-10T03:26:38;11.60;1.00
29003;DHT22;16102;57.138;-2.118;2023-06-10T03:29:05;11.60;1.00
29003;DHT22;16102;57.138;-2.118;2023-06-10T03:31:33;11.60;1.00
29003;DHT22;16102;57.138;-2.118;2023-06-10T03:34:02;11.50;1.00
29003;DHT22;16102;57.138;-2.118;2023-06-10T03:36:33;11.40;1.00
29003;DHT22;16102;57.138;-2.118;2023-06-10T03:39:00;11.50;8.60
29003;DHT22;16102;57.138;-2.118;2023-06-10T03:41:27;11.50;7.60
29003;DHT22;16102;57.138;-2.118;2023-06-10T03:43:54;11.60;6.00
29003;DHT22;16102;57.138;-2.118;2023-06-10T03:46:21;11.60;4.90
29003;DHT22;16102;57.138;-2.118;2023-06-10T03:48:48;11.70;4.90
29003;DHT22;16102;57.138;-2.118;2023-06-10T03:51:15;11.60;2.80
29003;DHT22;16102;57.138;-2.118;2023-06-10T03:53:42;11.60;5.20
29003;DHT22;16102;57.138;-2.118;2023-06-10T03:56:09;11.60;1.00
29003;DHT22;16102;57.138;-2.118;2023-06-10T03:58:36;11.50;12.40
29003;DHT22;16102;57.138;-2.118;2023-06-10T04:01:04;11.60;20.80
29003;DHT22;16102;57.138;-2.118;2023-06-10T04:03:31;11.70;16.50
29003;DHT22;16102;57.138;-2.118;2023-06-10T04:06:00;11.70;15.80
29003;DHT22;16102;57.138;-2.118;2023-06-10T04:08:28;11.70;12.60
29003;DHT22;16102;57.138;-2.118;2023-06-10T04:10:55;11.80;13.40
29003;DHT22;16102;57.138;-2.118;2023-06-10T04:13:23;11.80;4.70
29003;DHT22;16102;57.138;-2.118;2023-06-10T04:15:50;11.80;1.00
29003;DHT22;16102;57.138;-2.118;2023-06-10T04:18:18;11.70;1.00
29003;DHT22;16102;57.138;-2.118;2023-06-10T04:20:45;11.70;1.00
29003;DHT22;16102;57.138;-2.118;2023-06-10T04:23:12;11.70;2.20
29003;DHT22;16102;57.138;-2.118;2023-06-10T04:25:39;11.80;5.60
29003;DHT22;16102;57.138;-2.118;2023-06-10T04:28:06;11.80;5.00
29003;DHT22;16102;57.138;-2.118;2023-06-10T04:30:33;11.90;3.30
29003;DHT22;16102;57.138;-2.118;2023-06-10T04:33:00;11.90;1.00
29003;DHT22;16102;57.138;-2.118;2023-06-10T04:35:27;11.90;1.00
29003;DHT22;16102;57.138;-2.118;2023-06-10T04:37:54;11.90;1.00
29003;DHT22;16102;57.138;-2.118;2023-06-10T04:40:21;12.00;1.00
29003;DHT22;16102;57.138;-2.118;2023-06-10T04:42:49;11.90;1.00
29003;DHT22;16102;57.138;-2.118;2023-06-10T04:45:16;11.80;1.00
29003;DHT22;16102;57.138;-2.118;2023-06-10T04:47:43;11.80;7.00
29003;DHT22;16102;57.138;-2.118;2023-06-10T04:50:11;11.90;6.90
29003;DHT22;16102;57.138;-2.118;2023-06-10T04:52:39;11.80;4.30
29003;DHT22;16102;57.138;-2.118;2023-06-10T04:55:08;11.70;11.70
29003;DHT22;16102;57.138;-2.118;2023-06-10T04:57:36;11.70;20.00
29003;DHT22;16102;57.138;-2.118;2023-06-10T05:00:03;11.70;27.80
29003;DHT22;16102;57.138;-2.118;2023-06-10T05:02:33;11.80;42.20
29003;DHT22;16102;57.138;-2.118;2023-06-10T05:05:01;11.70;30.70
29003;DHT22;16102;57.138;-2.118;2023-06-10T05:07:27;11.80;35.00
29003;DHT22;16102;57.138;-2.118;2023-06-10T05:09:54;11.90;40.90
29003;DHT22;16102;57.138;-2.118;2023-06-10T05:12:22;12.00;35.80
29003;DHT22;16102;57.138;-2.118;2023-06-10T05:14:49;11.60;35.10
29003;DHT22;16102;57.138;-2.118;2023-06-10T05:17:16;11.60;61.50
29003;DHT22;16102;57.138;-2.118;2023-06-10T05:19:43;11.80;88.80
29003;DHT22;16102;57.138;-2.118;2023-06-10T05:22:10;11.70;74.20
29003;DHT22;16102;57.138;-2.118;2023-06-10T05:24:37;11.90;81.70
29003;DHT22;16102;57.138;-2.118;2023-06-10T05:27:05;12.00;70.00
29003;DHT22;16102;57.138;-2.118;2023-06-10T05:29:33;12.00;49.70
29003;DHT22;16102;57.138;-2.118;2023-06-10T05:32:00;12.00;35.90
29003;DHT22;16102;57.138;-2.118;2023-06-10T05:34:31;12.10;27.30
29003;DHT22;16102;57.138;-2.118;2023-06-10T05:36:58;11.80;22.50
29003;DHT22;16102;57.138;-2.118;2023-06-10T05:39:25;11.80;44.50
29003;DHT22;16102;57.138;-2.118;2023-06-10T05:41:52;11.90;48.70
29003;DHT22;16102;57.138;-2.118;2023-06-10T05:44:19;12.00;46.30
29003;DHT22;16102;57.138;-2.118;2023-06-10T05:46:46;12.00;36.30
29003;DHT22;16102;57.138;-2.118;2023-06-10T05:49:14;12.00;44.20
29003;DHT22;16102;57.138;-2.118;2023-06-10T05:51:41;12.20;43.00
29003;DHT22;16102;57.138;-2.118;2023-06-10T05:54:08;12.30;29.70
29003;DHT22;16102;57.138;-2.118;2023-06-10T05:56:35;12.40;22.00
29003;DHT22;16102;57.138;-2.118;2023-06-10T05:59:02;12.40;5.90
29003;DHT22;16102;57.138;-2.118;2023-06-10T06:01:29;12.40;1.00
29003;DHT22;16102;57.138;-2.118;2023-06-10T06:03:56;12.40;1.00
29003;DHT22;16102;57.138;-2.118;2023-06-10T06:06:23;12.30;1.00
29003;DHT22;16102;57.138;-2.118;2023-06-10T06:08:50;12.20;1.00
29003;DHT22;16102;57.138;-2.118;2023-06-10T06:11:17;12.20;1.00
29003;DHT22;16102;57.138;-2.118;2023-06-10T06:13:44;12.30;1.00
29003;DHT22;16102;57.138;-2.118;2023-06-10T06:16:11;12.20;1.00
29003;DHT22;16102;57.138;-2.118;2023-06-10T06:18:38;12.10;1.00
29003;DHT22;16102;57.138;-2.118;2023-06-10T06:21:05;12.20;1.10
29003;DHT22;16102;57.138;-2.118;2023-06-10T06:23:32;12.20;1.00
29003;DHT22;16102;57.138;-2.118;2023-06-10T06:25:59;12.20;1.00
29003;DHT22;16102;57.138;-2.118;2023-06-10T06:28:26;12.20;1.00
29003;DHT22;16102;57.138;-2.118;2023-06-10T06:30:56;12.20;6.60
29003;DHT22;16102;57.138;-2.118;2023-06-10T06:33:24;12.30;4.70
29003;DHT22;16102;57.138;-2.118;2023-06-10T06:35:52;12.30;2.10
29003;DHT22;16102;57.138;-2.118;2023-06-10T06:38:19;12.30;2.50
29003;DHT22;16102;57.138;-2.118;2023-06-10T06:40:47;12.30;8.10
29003;DHT22;16102;57.138;-2.118;2023-06-10T06:43:14;12.30;6.50
29003;DHT22;16102;57.138;-2.118;2023-06-10T06:45:41;12.30;1.00
29003;DHT22;16102;57.138;-2.118;2023-06-10T06:48:08;12.40;9.70
29003;DHT22;16102;57.138;-2.118;2023-06-10T06:50:35;12.60;7.80
29003;DHT22;16102;57.138;-2.118;2023-06-10T06:53:02;12.80;1.80
29003;DHT22;16102;57.138;-2.118;2023-06-10T06:55:30;12.90;1.00
29003;DHT22;16102;57.138;-2.118;2023-06-10T06:57:57;13.00;1.00
29003;DHT22;16102;57.138;-2.118;2023-06-10T07:00:24;13.00;1.00
29003;DHT22;16102;57.138;-2.118;2023-06-10T07:02:51;13.10;1.00
29003;DHT22;16102;57.138;-2.118;2023-06-10T07:05:18;12.90;1.00
29003;DHT22;16102;57.138;-2.118;2023-06-10T07:07:45;12.80;1.00
29003;DHT22;16102;57.138;-2.118;2023-06-10T07:10:12;12.60;1.00
29003;DHT22;16102;57.138;-2.118;2023-06-10T07:12:39;12.70;1.00
29003;DHT22;16102;57.138;-2.118;2023-06-10T07:15:06;12.60;1.00
29003;DHT22;16102;57.138;-2.118;2023-06-10T07:17:34;12.50;1.00
29003;DHT22;16102;57.138;-2.118;2023-06-10T07:20:01;12.50;1.00
29003;DHT22;16102;57.138;-2.118;2023-06-10T07:22:28;12.60;1.00
29003;DHT22;16102;57.138;-2.118;2023-06-10T07:24:55;12.50;1.00
29003;DHT22;16102;57.138;-2.118;2023-06-10T07:27:23;12.60;1.00
29003;DHT22;16102;57.138;-2.118;2023-06-10T07:29:50;12.70;1.00
29003;DHT22;16102;57.138;-2.118;2023-06-10T07:32:18;12.70;1.00
29003;DHT22;16102;57.138;-2.118;2023-06-10T07:34:46;12.70;1.00
29003;DHT22;16102;57.138;-2.118;2023-06-10T07:37:14;12.70;1.00
29003;DHT22;16102;57.138;-2.118;2023-06-10T07:39:40;12.80;1.00
29003;DHT22;16102;57.138;-2.118;2023-06-10T07:42:09;12.90;1.00
29003;DHT22;16102;57.138;-2.118;2023-06-10T07:44:36;12.90;1.00
29003;DHT22;16102;57.138;-2.118;2023-06-10T07:47:04;12.90;1.00
29003;DHT22;16102;57.138;-2.118;2023-06-10T07:49:31;13.00;1.00
29003;DHT22;16102;57.138;-2.118;2023-06-10T07:51:58;13.00;1.00
29003;DHT22;16102;57.138;-2.118;2023-06-10T07:54:25;13.00;1.00
29003;DHT22;16102;57.138;-2.118;2023-06-10T07:56:55;13.10;1.00
29003;DHT22;16102;57.138;-2.118;2023-06-10T07:59:23;13.00;1.00
29003;DHT22;16102;57.138;-2.118;2023-06-10T08:01:53;13.00;1.00
29003;DHT22;16102;57.138;-2.118;2023-06-10T08:04:20;13.10;1.00
29003;DHT22;16102;57.138;-2.118;2023-06-10T08:06:47;13.20;1.00
29003;DHT22;16102;57.138;-2.118;2023-06-10T08:09:14;13.20;1.00
29003;DHT22;16102;57.138;-2.118;2023-06-10T08:11:41;13.30;1.00
29003;DHT22;16102;57.138;-2.118;2023-06-10T08:14:08;13.20;1.00
29003;DHT22;16102;57.138;-2.118;2023-06-10T08:16:35;13.40;1.00
29003;DHT22;16102;57.138;-2.118;2023-06-10T08:19:03;13.50;1.00
29003;DHT22;16102;57.138;-2.118;2023-06-10T08:21:30;13.60;1.00
29003;DHT22;16102;57.138;-2.118;2023-06-10T08:23:58;13.80;1.00
29003;DHT22;16102;57.138;-2.118;2023-06-10T08:26:25;13.80;1.00
29003;DHT22;16102;57.138;-2.118;2023-06-10T08:28:52;13.80;1.00
29003;DHT22;16102;57.138;-2.118;2023-06-10T08:31:19;13.80;1.00
29003;DHT22;16102;57.138;-2.118;2023-06-10T08:33:46;13.80;1.00
29003;DHT22;16102;57.138;-2.118;2023-06-10T08:36:14;13.90;1.00
29003;DHT22;16102;57.138;-2.118;2023-06-10T08:38:41;14.00;1.00
29003;DHT22;16102;57.138;-2.118;2023-06-10T08:41:09;14.00;1.00
29003;DHT22;16102;57.138;-2.118;2023-06-10T08:43:57;14.00;1.00
29003;DHT22;16102;57.138;-2.118;2023-06-10T08:46:28;14.20;1.00
29003;DHT22;16102;57.138;-2.118;2023-06-10T08:48:58;14.20;1.00
29003;DHT22;16102;57.138;-2.118;2023-06-10T08:51:27;14.10;1.00
29003;DHT22;16102;57.138;-2.118;2023-06-10T08:54:02;14.00;1.00
29003;DHT22;16102;57.138;-2.118;2023-06-10T08:56:31;14.20;1.00
29003;DHT22;16102;57.138;-2.118;2023-06-10T08:58:59;14.30;1.00
29003;DHT22;16102;57.138;-2.118;2023-06-10T09:01:26;14.40;1.00
29003;DHT22;16102;57.138;-2.118;2023-06-10T09:03:54;14.50;1.00
29003;DHT22;16102;57.138;-2.118;2023-06-10T09:06:22;14.50;1.00
29003;DHT22;16102;57.138;-2.118;2023-06-10T09:08:50;14.50;1.00
29003;DHT22;16102;57.138;-2.118;2023-06-10T09:11:17;14.60;1.00
29003;DHT22;16102;57.138;-2.118;2023-06-10T09:13:44;14.40;1.00
29003;DHT22;16102;57.138;-2.118;2023-06-10T09:16:11;14.50;1.00
29003;DHT22;16102;57.138;-2.118;2023-06-10T09:18:40;14.60;1.00
29003;DHT22;16102;57.138;-2.118;2023-06-10T09:21:07;14.60;1.00
29003;DHT22;16102;57.138;-2.118;2023-06-10T09:23:34;14.70;1.00
29003;DHT22;16102;57.138;-2.118;2023-06-10T09:26:02;14.70;1.00
29003;DHT22;16102;57.138;-2.118;2023-06-10T09:28:36;14.60;1.00
29003;DHT22;16102;57.138;-2.118;2023-06-10T09:31:06;14.60;1.00
29003;DHT22;16102;57.138;-2.118;2023-06-10T09:33:39;14.70;1.00
29003;DHT22;16102;57.138;-2.118;2023-06-10T09:36:09;14.70;1.00
29003;DHT22;16102;57.138;-2.118;2023-06-10T09:38:37;14.70;1.00
29003;DHT22;16102;57.138;-2.118;2023-06-10T09:41:04;14.80;1.00
29003;DHT22;16102;57.138;-2.118;2023-06-10T09:43:45;14.80;1.00
29003;DHT22;16102;57.138;-2.118;2023-06-10T09:46:20;15.00;1.00
29003;DHT22;16102;57.138;-2.118;2023-06-10T09:48:48;15.00;1.00
29003;DHT22;16102;57.138;-2.118;2023-06-10T09:51:15;14.80;1.00
29003;DHT22;16102;57.138;-2.118;2023-06-10T09:53:51;14.90;1.00
29003;DHT22;16102;57.138;-2.118;2023-06-10T09:56:18;15.00;1.00
29003;DHT22;16102;57.138;-2.118;2023-06-10T09:58:46;15.10;1.00
29003;DHT22;16102;57.138;-2.118;2023-06-10T10:01:14;15.30;1.00
29003;DHT22;16102;57.138;-2.118;2023-06-10T10:03:50;15.30;1.00
29003;DHT22;16102;57.138;-2.118;2023-06-10T10:06:18;15.40;1.00
29003;DHT22;16102;57.138;-2.118;2023-06-10T10:08:48;15.70;1.00
29003;DHT22;16102;57.138;-2.118;2023-06-10T10:11:22;15.80;1.00
29003;DHT22;16102;57.138;-2.118;2023-06-10T10:13:50;16.20;1.00
29003;DHT22;16102;57.138;-2.118;2023-06-10T10:16:27;16.20;1.00
29003;DHT22;16102;57.138;-2.118;2023-06-10T10:19:23;16.40;1.00
29003;DHT22;16102;57.138;-2.118;2023-06-10T10:22:19;16.40;1.00
29003;DHT22;16102;57.138;-2.118;2023-06-10T10:24:50;16.70;1.00
29003;DHT22;16102;57.138;-2.118;2023-06-10T10:27:21;16.90;1.00
29003;DHT22;16102;57.138;-2.118;2023-06-10T10:29:54;17.10;1.00
29003;DHT22;16102;57.138;-2.118;2023-06-10T10:32:32;17.30;1.00
29003;DHT22;16102;57.138;-2.118;2023-06-10T10:35:18;17.40;1.00
29003;DHT22;16102;57.138;-2.118;2023-06-10T10:37:48;17.50;1.00
29003;DHT22;16102;57.138;-2.118;2023-06-10T10:40:16;17.80;1.00
29003;DHT22;16102;57.138;-2.118;2023-06-10T10:42:43;17.80;1.00
29003;DHT22;16102;57.138;-2.118;2023-06-10T10:45:11;18.10;1.00
29003;DHT22;16102;57.138;-2.118;2023-06-10T10:47:39;18.10;99.90
29003;DHT22;16102;57.138;-2.118;2023-06-10T10:50:17;18.20;99.90
29003;DHT22;16102;57.138;-2.118;2023-06-10T10:52:58;18.60;99.90
29003;DHT22;16102;57.138;-2.118;2023-06-10T10:55:27;18.80;99.90
29003;DHT22;16102;57.138;-2.118;2023-06-10T10:58:05;18.90;99.90
29003;DHT22;16102;57.138;-2.118;2023-06-10T11:00:43;18.70;99.90
29003;DHT22;16102;57.138;-2.118;2023-06-10T11:03:15;19.20;99.90
29003;DHT22;16102;57.138;-2.118;2023-06-10T11:05:48;19.40;99.90
29003;DHT22;16102;57.138;-2.118;2023-06-10T11:08:45;19.50;99.90
29003;DHT22;16102;57.138;-2.118;2023-06-10T11:11:26;19.20;99.90
29003;DHT22;16102;57.138;-2.118;2023-06-10T11:16:43;19.50;99.90
29003;DHT22;16102;57.138;-2.118;2023-06-10T11:19:36;19.60;99.90
29003;DHT22;16102;57.138;-2.118;2023-06-10T11:22:08;19.70;99.90
29003;DHT22;16102;57.138;-2.118;2023-06-10T11:24:37;19.80;99.90
29003;DHT22;16102;57.138;-2.118;2023-06-10T11:27:24;19.50;99.90
29003;DHT22;16102;57.138;-2.118;2023-06-10T11:30:00;19.20;99.90
29003;DHT22;16102;57.138;-2.118;2023-06-10T11:32:44;19.80;99.90
29003;DHT22;16102;57.138;-2.118;2023-06-10T11:35:11;20.40;99.90
29003;DHT22;16102;57.138;-2.118;2023-06-10T11:37:41;20.10;99.90
29003;DHT22;16102;57.138;-2.118;2023-06-10T11:40:09;20.20;99.90
29003;DHT22;16102;57.138;-2.118;2023-06-10T11:42:40;20.30;99.90
29003;DHT22;16102;57.138;-2.118;2023-06-10T11:45:07;20.20;99.90
29003;DHT22;16102;57.138;-2.118;2023-06-10T11:47:35;20.40;99.90
29003;DHT22;16102;57.138;-2.118;2023-06-10T11:50:02;20.50;99.90
29003;DHT22;16102;57.138;-2.118;2023-06-10T11:52:31;20.50;99.90
29003;DHT22;16102;57.138;-2.118;2023-06-10T11:55:06;21.10;99.90
29003;DHT22;16102;57.138;-2.118;2023-06-10T11:57:37;20.80;99.90
29003;DHT22;16102;57.138;-2.118;2023-06-10T12:00:07;21.40;99.90
29003;DHT22;16102;57.138;-2.118;2023-06-10T12:02:35;21.80;99.90
29003;DHT22;16102;57.138;-2.118;2023-06-10T12:05:12;22.00;99.90
29003;DHT22;16102;57.138;-2.118;2023-06-10T12:07:39;22.30;99.90
29003;DHT22;16102;57.138;-2.118;2023-06-10T12:10:06;22.70;99.90
29003;DHT22;16102;57.138;-2.118;2023-06-10T12:12:52;22.80;99.90
29003;DHT22;16102;57.138;-2.118;2023-06-10T12:15:25;22.90;99.90
29003;DHT22;16102;57.138;-2.118;2023-06-10T12:17:52;23.10;99.90
29003;DHT22;16102;57.138;-2.118;2023-06-10T12:20:27;23.00;99.90
29003;DHT22;16102;57.138;-2.118;2023-06-10T12:22:54;22.80;99.90
29003;DHT22;16102;57.138;-2.118;2023-06-10T12:25:26;22.70;99.90
29003;DHT22;16102;57.138;-2.118;2023-06-10T12:27:55;23.50;99.90
29003;DHT22;16102;57.138;-2.118;2023-06-10T12:30:24;24.20;99.90
29003;DHT22;16102;57.138;-2.118;2023-06-10T12:32:51;24.00;99.90
29003;DHT22;16102;57.138;-2.118;2023-06-10T12:35:26;24.60;99.90
29003;DHT22;16102;57.138;-2.118;2023-06-10T12:40:31;26.10;99.90
29003;DHT22;16102;57.138;-2.118;2023-06-10T12:42:59;26.80;99.90
29003;DHT22;16102;57.138;-2.118;2023-06-10T12:45:31;26.80;99.90
29003;DHT22;16102;57.138;-2.118;2023-06-10T12:50:41;26.80;99.90
29003;DHT22;16102;57.138;-2.118;2023-06-10T12:53:09;27.40;99.90
29003;DHT22;16102;57.138;-2.118;2023-06-10T12:55:36;27.60;99.90
29003;DHT22;16102;57.138;-2.118;2023-06-10T12:58:04;27.20;99.90
29003;DHT22;16102;57.138;-2.118;2023-06-10T13:00:31;27.50;99.90
29003;DHT22;16102;57.138;-2.118;2023-06-10T13:03:00;26.40;99.90
29003;DHT22;16102;57.138;-2.118;2023-06-10T13:05:29;26.30;99.90
29003;DHT22;16102;57.138;-2.118;2023-06-10T13:07:56;26.80;99.90
29003;DHT22;16102;57.138;-2.118;2023-06-10T13:10:23;26.10;99.90
29003;DHT22;16102;57.138;-2.118;2023-06-10T13:12:52;26.00;99.90
29003;DHT22;16102;57.138;-2.118;2023-06-10T13:15:21;25.40;99.90
29003;DHT22;16102;57.138;-2.118;2023-06-10T13:17:48;25.10;99.90
29003;DHT22;16102;57.138;-2.118;2023-06-10T13:20:18;25.20;99.90
29003;DHT22;16102;57.138;-2.118;2023-06-10T13:22:46;25.60;99.90
29003;DHT22;16102;57.138;-2.118;2023-06-10T13:25:13;24.90;99.90
29003;DHT22;16102;57.138;-2.118;2023-06-10T13:27:40;24.80;99.90
29003;DHT22;16102;57.138;-2.118;2023-06-10T13:30:10;24.40;99.90
29003;DHT22;16102;57.138;-2.118;2023-06-10T13:32:38;24.00;99.90
29003;DHT22;16102;57.138;-2.118;2023-06-10T13:35:05;23.70;99.90
29003;DHT22;16102;57.138;-2.118;2023-06-10T13:37:34;23.60;99.90
29003;DHT22;16102;57.138;-2.118;2023-06-10T13:40:02;23.10;99.90
29003;DHT22;16102;57.138;-2.118;2023-06-10T13:42:29;22.90;99.90
29003;DHT22;16102;57.138;-2.118;2023-06-10T13:44:56;23.30;99.90
29003;DHT22;16102;57.138;-2.118;2023-06-10T13:47:23;23.80;99.90
29003;DHT22;16102;57.138;-2.118;2023-06-10T13:49:51;24.20;99.90
29003;DHT22;16102;57.138;-2.118;2023-06-10T13:52:18;24.60;99.90
29003;DHT22;16102;57.138;-2.118;2023-06-10T13:54:45;25.10;99.90
29003;DHT22;16102;57.138;-2.118;2023-06-10T13:57:12;25.60;99.90
29003;DHT22;16102;57.138;-2.118;2023-06-10T13:59:39;25.90;99.90
29003;DHT22;16102;57.138;-2.118;2023-06-10T14:02:06;26.20;99.90
29003;DHT22;16102;57.138;-2.118;2023-06-10T14:04:33;27.10;99.90
29003;DHT22;16102;57.138;-2.118;2023-06-10T14:07:00;27.30;99.90
29003;DHT22;16102;57.138;-2.118;2023-06-10T14:09:27;27.10;99.90
29003;DHT22;16102;57.138;-2.118;2023-06-10T14:11:54;27.60;99.90
29003;DHT22;16102;57.138;-2.118;2023-06-10T14:14:21;28.60;99.90
29003;DHT22;16102;57.138;-2.118;2023-06-10T14:16:49;28.20;99.90
29003;DHT22;16102;57.138;-2.118;2023-06-10T14:19:16;28.50;99.90
29003;DHT22;16102;57.138;-2.118;2023-06-10T14:21:43;28.10;99.90
29003;DHT22;16102;57.138;-2.118;2023-06-10T14:24:10;27.90;99.90
29003;DHT22;16102;57.138;-2.118;2023-06-10T14:26:37;28.30;99.90
29003;DHT22;16102;57.138;-2.118;2023-06-10T14:29:04;28.80;99.90
29003;DHT22;16102;57.138;-2.118;2023-06-10T14:31:31;29.00;99.90
29003;DHT22;16102;57.138;-2.118;2023-06-10T14:33:58;29.30;99.90
29003;DHT22;16102;57.138;-2.118;2023-06-10T14:36:25;29.70;99.90
29003;DHT22;16102;57.138;-2.118;2023-06-10T14:38:52;29.60;99.90
29003;DHT22;16102;57.138;-2.118;2023-06-10T14:41:20;28.70;99.90
29003;DHT22;16102;57.138;-2.118;2023-06-10T14:43:49;28.10;99.90
29003;DHT22;16102;57.138;-2.118;2023-06-10T14:46:16;27.40;99.90
29003;DHT22;16102;57.138;-2.118;2023-06-10T14:48:43;26.40;99.90
29003;DHT22;16102;57.138;-2.118;2023-06-10T14:51:10;25.00;99.90
29003;DHT22;16102;57.138;-2.118;2023-06-10T14:53:37;24.60;99.90
29003;DHT22;16102;57.138;-2.118;2023-06-10T14:56:04;23.40;99.90
29003;DHT22;16102;57.138;-2.118;2023-06-10T14:58:31;23.10;99.90
29003;DHT22;16102;57.138;-2.118;2023-06-10T15:00:58;22.80;99.90
29003;DHT22;16102;57.138;-2.118;2023-06-10T15:03:25;22.90;99.90
29003;DHT22;16102;57.138;-2.118;2023-06-10T15:05:52;22.80;99.90
29003;DHT22;16102;57.138;-2.118;2023-06-10T15:08:19;22.50;99.90
29003;DHT22;16102;57.138;-2.118;2023-06-10T15:10:46;22.00;99.90
29003;DHT22;16102;57.138;-2.118;2023-06-10T15:13:15;21.40;99.90
29003;DHT22;16102;57.138;-2.118;2023-06-10T15:15:42;21.30;99.90
29003;DHT22;16102;57.138;-2.118;2023-06-10T15:18:09;21.20;99.90
29003;DHT22;16102;57.138;-2.118;2023-06-10T15:20:36;20.40;99.90
29003;DHT22;16102;57.138;-2.118;2023-06-10T15:23:03;19.90;99.90
29003;DHT22;16102;57.138;-2.118;2023-06-10T15:25:30;20.40;99.90
29003;DHT22;16102;57.138;-2.118;2023-06-10T15:27:58;20.50;99.90
29003;DHT22;16102;57.138;-2.118;2023-06-10T15:30:25;20.00;99.90
29003;DHT22;16102;57.138;-2.118;2023-06-10T15:32:52;19.40;99.90
29003;DHT22;16102;57.138;-2.118;2023-06-10T15:35:19;19.90;99.90
29003;DHT22;16102;57.138;-2.118;2023-06-10T15:37:46;20.20;99.90
29003;DHT22;16102;57.138;-2.118;2023-06-10T15:40:13;20.20;99.90
29003;DHT22;16102;57.138;-2.118;2023-06-10T15:42:40;20.10;99.90
29003;DHT22;16102;57.138;-2.118;2023-06-10T15:45:08;19.70;99.90
29003;DHT22;16102;57.138;-2.118;2023-06-10T15:47:35;19.70;99.90